sensor_id;sensor_type;location;lat;lon;timestamp;P1;durP1;ratioP1;P2;durP2;ratioP2
8580;SDS011;4328;48.622;9.230;2022-12-20T00:02:20;21.30;;;16.17;;
8580;SDS011;4328;48.622;9.230;2022-12-20T00:04:48;19.27;;;14.80;;
8580;SDS011;4328;48.622;9.230;2022-12-20T00:07:14;21.37;;;15.87;;
8580;SDS011;4328;48.622;9.230;2022-12-20T00:09:41;19.80;;;15.63;;
8580;SDS011;4328;48.622;9.230;2022-12-20T00:12:08;18.93;;;14.63;;
8580;SDS011;4328;48.622;9.230;2022-12-20T00:14:34;19.30;;;15.43;;
8580;SDS011;4328;48.622;9.230;2022-12-20T00:17:01;20.20;;;14.73;;
8580;SDS011;4328;48.622;9.230;2022-12-20T00:19:27;18.73;;;15.23;;
8580;SDS011;4328;48.622;9.230;2022-12-20T00:21:55;18.07;;;14.97;;
8580;SDS011;4328;48.622;9.230;2022-12-20T00:24:22;19.80;;;14.87;;
8580;SDS011;4328;48.622;9.230;2022-12-20T00:26:49;19.37;;;15.83;;
8580;SDS011;4328;48.622;9.230;2022-12-20T00:29:16;21.07;;;15.63;;
8580;SDS011;4328;48.622;9.230;2022-12-20T00:31:42;18.97;;;15.67;;
8580;SDS011;4328;48.622;9.230;2022-12-20T00:34:09;20.63;;;14.87;;
8580;SDS011;4328;48.622;9.230;2022-12-20T00:36:35;22.57;;;15.80;;
8580;SDS011;4328;48.622;9.230;2022-12-20T00:39:06;18.37;;;14.63;;
8580;SDS011;4328;48.622;9.230;2022-12-20T00:41:33;17.77;;;13.67;;
8580;SDS011;4328;48.622;9.230;2022-12-20T00:44:00;19.87;;;15.63;;
8580;SDS011;4328;48.622;9.230;2022-12-20T00:46:27;17.00;;;15.17;;
8580;SDS011;4328;48.622;9.230;2022-12-20T00:48:54;20.13;;;15.20;;
8580;SDS011;4328;48.622;9.230;2022-12-20T00:51:22;15.73;;;13.73;;
8580;SDS011;4328;48.622;9.230;2022-12-20T00:53:50;16.37;;;13.87;;
8580;SDS011;4328;48.622;9.230;2022-12-20T00:56:19;18.47;;;13.93;;
8580;SDS011;4328;48.622;9.230;2022-12-20T00:58:46;18.10;;;14.93;;
8580;SDS011;4328;48.622;9.230;2022-12-20T01:01:14;19.30;;;15.10;;
8580;SDS011;4328;48.622;9.230;2022-12-20T01:03:43;19.20;;;14.13;;
8580;SDS011;4328;48.622;9.230;2022-12-20T01:06:09;17.03;;;14.30;;
8580;SDS011;4328;48.622;9.230;2022-12-20T01:08:36;16.97;;;13.87;;
8580;SDS011;4328;48.622;9.230;2022-12-20T01:11:04;19.90;;;14.10;;
8580;SDS011;4328;48.622;9.230;2022-12-20T01:13:34;20.00;;;15.07;;
8580;SDS011;4328;48.622;9.230;2022-12-20T01:16:03;20.03;;;15.37;;
8580;SDS011;4328;48.622;9.230;2022-12-20T01:18:31;18.73;;;14.63;;
8580;SDS011;4328;48.622;9.230;2022-12-20T01:21:01;17.87;;;13.87;;
8580;SDS011;4328;48.622;9.230;2022-12-20T01:23:29;17.93;;;13.20;;
8580;SDS011;4328;48.622;9.230;2022-12-20T01:25:56;19.13;;;13.97;;
8580;SDS011;4328;48.622;9.230;2022-12-20T01:28:24;21.30;;;16.03;;
8580;SDS011;4328;48.622;9.230;2022-12-20T01:30:52;17.23;;;14.07;;
8580;SDS011;4328;48.622;9.230;2022-12-20T01:33:18;18.10;;;14.47;;
8580;SDS011;4328;48.622;9.230;2022-12-20T01:35:53;17.40;;;13.77;;
8580;SDS011;4328;48.622;9.230;2022-12-20T01:38:21;19.00;;;14.60;;
8580;SDS011;4328;48.622;9.230;2022-12-20T01:40:47;16.30;;;13.13;;
8580;SDS011;4328;48.622;9.230;2022-12-20T01:43:14;15.70;;;13.43;;
8580;SDS011;4328;48.622;9.230;2022-12-20T01:45:43;18.03;;;13.50;;
8580;SDS011;4328;48.622;9.230;2022-12-20T01:48:12;18.47;;;13.77;;
8580;SDS011;4328;48.622;9.230;2022-12-20T01:50:41;17.03;;;13.77;;
8580;SDS011;4328;48.622;9.230;2022-12-20T01:53:08;14.97;;;12.07;;
8580;SDS011;4328;48.622;9.230;2022-12-20T01:55:36;16.67;;;13.47;;
8580;SDS011;4328;48.622;9.230;2022-12-20T01:58:03;19.43;;;13.57;;
8580;SDS011;4328;48.622;9.230;2022-12-20T02:00:33;17.27;;;13.13;;
8580;SDS011;4328;48.622;9.230;2022-12-20T02:03:02;18.00;;;14.27;;
8580;SDS011;4328;48.622;9.230;2022-12-20T02:05:34;16.50;;;13.60;;
8580;SDS011;4328;48.622;9.230;2022-12-20T02:08:02;20.87;;;14.27;;
8580;SDS011;4328;48.622;9.230;2022-12-20T02:10:33;17.20;;;13.47;;
8580;SDS011;4328;48.622;9.230;2022-12-20T02:13:18;16.90;;;13.57;;
8580;SDS011;4328;48.622;9.230;2022-12-20T02:15:53;17.33;;;13.47;;
8580;SDS011;4328;48.622;9.230;2022-12-20T02:18:22;17.17;;;13.47;;
8580;SDS011;4328;48.622;9.230;2022-12-20T02:24:09;17.83;;;13.90;;
8580;SDS011;4328;48.622;9.230;2022-12-20T02:27:05;16.47;;;13.60;;
8580;SDS011;4328;48.622;9.230;2022-12-20T02:30:06;15.73;;;13.63;;
8580;SDS011;4328;48.622;9.230;2022-12-20T02:32:36;18.63;;;14.27;;
8580;SDS011;4328;48.622;9.230;2022-12-20T02:35:06;17.87;;;13.10;;
8580;SDS011;4328;48.622;9.230;2022-12-20T02:37:33;19.17;;;14.37;;
8580;SDS011;4328;48.622;9.230;2022-12-20T02:40:00;18.07;;;13.87;;
8580;SDS011;4328;48.622;9.230;2022-12-20T02:42:29;16.63;;;13.80;;
8580;SDS011;4328;48.622;9.230;2022-12-20T02:44:59;16.27;;;13.80;;
8580;SDS011;4328;48.622;9.230;2022-12-20T02:47:47;14.93;;;13.20;;
8580;SDS011;4328;48.622;9.230;2022-12-20T02:50:18;18.33;;;13.57;;
8580;SDS011;4328;48.622;9.230;2022-12-20T02:52:48;15.87;;;13.30;;
8580;SDS011;4328;48.622;9.230;2022-12-20T02:55:17;16.73;;;13.63;;
8580;SDS011;4328;48.622;9.230;2022-12-20T02:57:47;17.37;;;13.50;;
8580;SDS011;4328;48.622;9.230;2022-12-20T03:00:18;15.67;;;13.70;;
8580;SDS011;4328;48.622;9.230;2022-12-20T03:02:48;14.03;;;12.43;;
8580;SDS011;4328;48.622;9.230;2022-12-20T03:05:37;16.07;;;12.77;;
8580;SDS011;4328;48.622;9.230;2022-12-20T03:08:09;14.60;;;12.67;;
8580;SDS011;4328;48.622;9.230;2022-12-20T03:10:36;15.77;;;12.47;;
8580;SDS011;4328;48.622;9.230;2022-12-20T03:13:03;14.47;;;12.10;;
8580;SDS011;4328;48.622;9.230;2022-12-20T03:15:30;15.67;;;12.47;;
8580;SDS011;4328;48.622;9.230;2022-12-20T03:17:58;16.27;;;12.13;;
8580;SDS011;4328;48.622;9.230;2022-12-20T03:20:24;14.73;;;11.43;;
8580;SDS011;4328;48.622;9.230;2022-12-20T03:22:51;15.50;;;12.23;;
8580;SDS011;4328;48.622;9.230;2022-12-20T03:25:18;13.30;;;10.67;;
8580;SDS011;4328;48.622;9.230;2022-12-20T03:27:45;13.20;;;11.17;;
8580;SDS011;4328;48.622;9.230;2022-12-20T03:30:12;13.60;;;10.47;;
8580;SDS011;4328;48.622;9.230;2022-12-20T03:32:39;14.60;;;11.23;;
8580;SDS011;4328;48.622;9.230;2022-12-20T03:35:08;15.17;;;11.17;;
8580;SDS011;4328;48.622;9.230;2022-12-20T03:37:34;12.20;;;10.20;;
8580;SDS011;4328;48.622;9.230;2022-12-20T03:40:01;13.07;;;10.73;;
8580;SDS011;4328;48.622;9.230;2022-12-20T03:42:29;13.67;;;10.70;;
8580;SDS011;4328;48.622;9.230;2022-12-20T03:44:56;13.77;;;10.23;;
8580;SDS011;4328;48.622;9.230;2022-12-20T03:47:22;11.90;;;10.30;;
8580;SDS011;4328;48.622;9.230;2022-12-20T03:49:49;12.60;;;10.23;;
8580;SDS011;4328;48.622;9.230;2022-12-20T03:52:17;13.80;;;10.90;;
8580;SDS011;4328;48.622;9.230;2022-12-20T03:54:44;12.63;;;10.97;;
8580;SDS011;4328;48.622;9.230;2022-12-20T03:57:10;13.97;;;10.80;;
8580;SDS011;4328;48.622;9.230;2022-12-20T03:59:37;11.87;;;10.47;;
8580;SDS011;4328;48.622;9.230;2022-12-20T04:02:04;15.13;;;10.97;;
8580;SDS011;4328;48.622;9.230;2022-12-20T04:04:30;13.03;;;10.93;;
8580;SDS011;4328;48.622;9.230;2022-12-20T04:06:57;12.53;;;10.80;;
8580;SDS011;4328;48.622;9.230;2022-12-20T04:09:25;13.87;;;11.27;;
8580;SDS011;4328;48.622;9.230;2022-12-20T04:11:51;12.33;;;10.23;;
8580;SDS011;4328;48.622;9.230;2022-12-20T04:14:18;14.03;;;10.13;;
8580;SDS011;4328;48.622;9.230;2022-12-20T04:16:45;15.20;;;11.67;;
8580;SDS011;4328;48.622;9.230;2022-12-20T04:19:11;12.67;;;10.50;;
8580;SDS011;4328;48.622;9.230;2022-12-20T04:21:38;15.33;;;11.00;;
8580;SDS011;4328;48.622;9.230;2022-12-20T04:24:05;13.73;;;10.70;;
8580;SDS011;4328;48.622;9.230;2022-12-20T04:26:34;12.50;;;10.70;;
8580;SDS011;4328;48.622;9.230;2022-12-20T04:29:00;14.27;;;10.90;;
8580;SDS011;4328;48.622;9.230;2022-12-20T04:31:27;13.00;;;10.63;;
8580;SDS011;4328;48.622;9.230;2022-12-20T04:33:53;12.80;;;10.10;;
8580;SDS011;4328;48.622;9.230;2022-12-20T04:36:20;12.50;;;10.30;;
8580;SDS011;4328;48.622;9.230;2022-12-20T04:38:47;12.47;;;9.47;;
8580;SDS011;4328;48.622;9.230;2022-12-20T04:41:14;12.67;;;10.07;;
8580;SDS011;4328;48.622;9.230;2022-12-20T04:43:49;13.80;;;10.10;;
8580;SDS011;4328;48.622;9.230;2022-12-20T04:46:16;12.80;;;9.43;;
8580;SDS011;4328;48.622;9.230;2022-12-20T04:48:43;11.47;;;9.13;;
8580;SDS011;4328;48.622;9.230;2022-12-20T04:51:10;13.37;;;9.83;;
8580;SDS011;4328;48.622;9.230;2022-12-20T04:53:37;11.10;;;9.43;;
8580;SDS011;4328;48.622;9.230;2022-12-20T04:56:12;11.17;;;9.00;;
8580;SDS011;4328;48.622;9.230;2022-12-20T04:58:43;11.30;;;9.30;;
8580;SDS011;4328;48.622;9.230;2022-12-20T05:01:12;10.77;;;9.03;;
8580;SDS011;4328;48.622;9.230;2022-12-20T05:03:38;11.57;;;9.60;;
8580;SDS011;4328;48.622;9.230;2022-12-20T05:06:06;11.20;;;9.70;;
8580;SDS011;4328;48.622;9.230;2022-12-20T05:08:33;12.37;;;9.80;;
8580;SDS011;4328;48.622;9.230;2022-12-20T05:11:00;13.20;;;9.77;;
8580;SDS011;4328;48.622;9.230;2022-12-20T05:13:26;11.67;;;9.23;;
8580;SDS011;4328;48.622;9.230;2022-12-20T05:15:54;12.27;;;9.33;;
8580;SDS011;4328;48.622;9.230;2022-12-20T05:18:23;13.83;;;10.43;;
8580;SDS011;4328;48.622;9.230;2022-12-20T05:20:50;11.50;;;9.57;;
8580;SDS011;4328;48.622;9.230;2022-12-20T05:23:34;10.10;;;8.83;;
8580;SDS011;4328;48.622;9.230;2022-12-20T05:26:20;10.60;;;9.27;;
8580;SDS011;4328;48.622;9.230;2022-12-20T05:28:48;13.33;;;9.83;;
8580;SDS011;4328;48.622;9.230;2022-12-20T05:31:15;11.87;;;9.17;;
8580;SDS011;4328;48.622;9.230;2022-12-20T05:33:43;11.43;;;9.67;;
8580;SDS011;4328;48.622;9.230;2022-12-20T05:36:10;13.40;;;9.40;;
8580;SDS011;4328;48.622;9.230;2022-12-20T05:38:37;10.23;;;9.17;;
8580;SDS011;4328;48.622;9.230;2022-12-20T05:41:03;11.27;;;9.53;;
8580;SDS011;4328;48.622;9.230;2022-12-20T05:43:30;10.00;;;8.47;;
8580;SDS011;4328;48.622;9.230;2022-12-20T05:45:57;11.60;;;9.87;;
8580;SDS011;4328;48.622;9.230;2022-12-20T05:48:24;13.03;;;10.10;;
8580;SDS011;4328;48.622;9.230;2022-12-20T05:50:52;11.43;;;9.60;;
8580;SDS011;4328;48.622;9.230;2022-12-20T05:53:19;11.40;;;10.23;;
8580;SDS011;4328;48.622;9.230;2022-12-20T05:55:46;11.83;;;10.20;;
8580;SDS011;4328;48.622;9.230;2022-12-20T05:58:14;12.90;;;10.40;;
8580;SDS011;4328;48.622;9.230;2022-12-20T06:00:42;12.53;;;9.93;;
8580;SDS011;4328;48.622;9.230;2022-12-20T06:03:11;12.23;;;10.13;;
8580;SDS011;4328;48.622;9.230;2022-12-20T06:05:39;12.43;;;10.13;;
8580;SDS011;4328;48.622;9.230;2022-12-20T06:08:09;11.47;;;9.57;;
8580;SDS011;4328;48.622;9.230;2022-12-20T06:10:36;17.60;;;9.87;;
8580;SDS011;4328;48.622;9.230;2022-12-20T06:13:05;13.50;;;9.73;;
8580;SDS011;4328;48.622;9.230;2022-12-20T06:15:32;11.60;;;9.50;;
8580;SDS011;4328;48.622;9.230;2022-12-20T06:17:59;10.73;;;9.43;;
8580;SDS011;4328;48.622;9.230;2022-12-20T06:20:25;11.37;;;9.03;;
8580;SDS011;4328;48.622;9.230;2022-12-20T06:22:53;12.90;;;9.33;;
8580;SDS011;4328;48.622;9.230;2022-12-20T06:25:21;13.03;;;9.63;;
8580;SDS011;4328;48.622;9.230;2022-12-20T06:27:47;11.97;;;9.07;;
8580;SDS011;4328;48.622;9.230;2022-12-20T06:30:14;11.97;;;9.17;;
8580;SDS011;4328;48.622;9.230;2022-12-20T06:32:41;11.77;;;9.00;;
8580;SDS011;4328;48.622;9.230;2022-12-20T06:35:08;9.50;;;8.50;;
8580;SDS011;4328;48.622;9.230;2022-12-20T06:37:35;10.63;;;8.90;;
8580;SDS011;4328;48.622;9.230;2022-12-20T06:40:05;11.93;;;9.27;;
8580;SDS011;4328;48.622;9.230;2022-12-20T06:42:34;14.03;;;8.83;;
8580;SDS011;4328;48.622;9.230;2022-12-20T06:45:01;11.80;;;9.70;;
8580;SDS011;4328;48.622;9.230;2022-12-20T06:47:28;12.70;;;9.80;;
8580;SDS011;4328;48.622;9.230;2022-12-20T06:49:54;14.30;;;9.80;;
8580;SDS011;4328;48.622;9.230;2022-12-20T06:52:21;11.33;;;9.60;;
8580;SDS011;4328;48.622;9.230;2022-12-20T06:54:48;9.40;;;8.50;;
8580;SDS011;4328;48.622;9.230;2022-12-20T06:57:14;11.87;;;8.90;;
8580;SDS011;4328;48.622;9.230;2022-12-20T06:59:42;10.40;;;8.67;;
8580;SDS011;4328;48.622;9.230;2022-12-20T07:02:09;11.17;;;8.57;;
8580;SDS011;4328;48.622;9.230;2022-12-20T07:04:36;16.43;;;11.37;;
8580;SDS011;4328;48.622;9.230;2022-12-20T07:07:03;13.07;;;9.87;;
8580;SDS011;4328;48.622;9.230;2022-12-20T07:09:30;10.73;;;8.63;;
8580;SDS011;4328;48.622;9.230;2022-12-20T07:11:57;10.17;;;8.00;;
8580;SDS011;4328;48.622;9.230;2022-12-20T07:14:24;9.30;;;8.40;;
8580;SDS011;4328;48.622;9.230;2022-12-20T07:16:52;13.40;;;8.37;;
8580;SDS011;4328;48.622;9.230;2022-12-20T07:19:18;10.27;;;8.40;;
8580;SDS011;4328;48.622;9.230;2022-12-20T07:21:46;9.50;;;8.07;;
8580;SDS011;4328;48.622;9.230;2022-12-20T07:24:12;9.83;;;8.83;;
8580;SDS011;4328;48.622;9.230;2022-12-20T07:26:39;11.83;;;8.40;;
8580;SDS011;4328;48.622;9.230;2022-12-20T07:29:05;9.30;;;8.20;;
8580;SDS011;4328;48.622;9.230;2022-12-20T07:31:32;13.67;;;9.90;;
8580;SDS011;4328;48.622;9.230;2022-12-20T07:34:00;10.90;;;9.80;;
8580;SDS011;4328;48.622;9.230;2022-12-20T07:36:27;11.40;;;8.27;;
8580;SDS011;4328;48.622;9.230;2022-12-20T07:38:53;9.97;;;8.37;;
8580;SDS011;4328;48.622;9.230;2022-12-20T07:41:20;11.27;;;9.07;;
8580;SDS011;4328;48.622;9.230;2022-12-20T07:43:47;12.63;;;9.33;;
8580;SDS011;4328;48.622;9.230;2022-12-20T07:46:14;13.93;;;10.30;;
8580;SDS011;4328;48.622;9.230;2022-12-20T07:48:42;12.37;;;9.87;;
8580;SDS011;4328;48.622;9.230;2022-12-20T07:51:11;12.57;;;9.77;;
8580;SDS011;4328;48.622;9.230;2022-12-20T07:53:42;12.80;;;9.70;;
8580;SDS011;4328;48.622;9.230;2022-12-20T07:56:12;11.83;;;9.33;;
8580;SDS011;4328;48.622;9.230;2022-12-20T07:58:40;13.23;;;9.20;;
8580;SDS011;4328;48.622;9.230;2022-12-20T08:01:09;12.53;;;10.03;;
8580;SDS011;4328;48.622;9.230;2022-12-20T08:03:38;13.07;;;9.80;;
8580;SDS011;4328;48.622;9.230;2022-12-20T08:06:08;12.10;;;9.13;;
8580;SDS011;4328;48.622;9.230;2022-12-20T08:08:37;11.93;;;9.43;;
8580;SDS011;4328;48.622;9.230;2022-12-20T08:11:10;11.03;;;9.07;;
8580;SDS011;4328;48.622;9.230;2022-12-20T08:13:37;11.60;;;9.60;;
8580;SDS011;4328;48.622;9.230;2022-12-20T08:16:05;10.63;;;9.53;;
8580;SDS011;4328;48.622;9.230;2022-12-20T08:18:32;11.90;;;9.30;;
8580;SDS011;4328;48.622;9.230;2022-12-20T08:20:59;12.43;;;8.97;;
8580;SDS011;4328;48.622;9.230;2022-12-20T08:23:26;13.27;;;10.13;;
8580;SDS011;4328;48.622;9.230;2022-12-20T08:25:54;12.10;;;10.30;;
8580;SDS011;4328;48.622;9.230;2022-12-20T08:28:20;10.67;;;9.03;;
8580;SDS011;4328;48.622;9.230;2022-12-20T08:30:48;11.33;;;9.20;;
8580;SDS011;4328;48.622;9.230;2022-12-20T08:33:14;11.30;;;9.40;;
8580;SDS011;4328;48.622;9.230;2022-12-20T08:35:41;11.10;;;9.17;;
8580;SDS011;4328;48.622;9.230;2022-12-20T08:38:07;13.50;;;9.53;;
8580;SDS011;4328;48.622;9.230;2022-12-20T08:40:34;10.80;;;8.37;;
8580;SDS011;4328;48.622;9.230;2022-12-20T08:43:02;12.03;;;8.60;;
8580;SDS011;4328;48.622;9.230;2022-12-20T08:45:29;12.83;;;8.93;;
8580;SDS011;4328;48.622;9.230;2022-12-20T08:47:55;12.07;;;8.13;;
8580;SDS011;4328;48.622;9.230;2022-12-20T08:50:22;24.07;;;9.20;;
8580;SDS011;4328;48.622;9.230;2022-12-20T08:52:51;10.37;;;8.00;;
8580;SDS011;4328;48.622;9.230;2022-12-20T08:55:17;9.93;;;8.73;;
8580;SDS011;4328;48.622;9.230;2022-12-20T08:57:44;9.00;;;8.07;;
8580;SDS011;4328;48.622;9.230;2022-12-20T09:00:13;10.87;;;9.13;;
8580;SDS011;4328;48.622;9.230;2022-12-20T09:02:40;10.50;;;9.03;;
8580;SDS011;4328;48.622;9.230;2022-12-20T09:05:07;9.47;;;8.47;;
8580;SDS011;4328;48.622;9.230;2022-12-20T09:07:34;8.87;;;7.80;;
8580;SDS011;4328;48.622;9.230;2022-12-20T09:10:01;10.97;;;8.00;;
8580;SDS011;4328;48.622;9.230;2022-12-20T09:12:27;9.83;;;7.07;;
8580;SDS011;4328;48.622;9.230;2022-12-20T09:14:54;8.50;;;7.63;;
8580;SDS011;4328;48.622;9.230;2022-12-20T09:17:23;8.57;;;7.57;;
8580;SDS011;4328;48.622;9.230;2022-12-20T09:19:49;8.00;;;7.20;;
8580;SDS011;4328;48.622;9.230;2022-12-20T09:22:16;7.77;;;6.67;;
8580;SDS011;4328;48.622;9.230;2022-12-20T09:24:45;8.70;;;7.90;;
8580;SDS011;4328;48.622;9.230;2022-12-20T09:27:12;9.33;;;7.67;;
8580;SDS011;4328;48.622;9.230;2022-12-20T09:29:38;9.17;;;7.83;;
8580;SDS011;4328;48.622;9.230;2022-12-20T09:32:05;8.60;;;7.70;;
8580;SDS011;4328;48.622;9.230;2022-12-20T09:34:34;9.87;;;7.27;;
8580;SDS011;4328;48.622;9.230;2022-12-20T09:37:00;9.43;;;7.40;;
8580;SDS011;4328;48.622;9.230;2022-12-20T09:39:27;9.40;;;7.33;;
8580;SDS011;4328;48.622;9.230;2022-12-20T09:41:53;10.97;;;8.23;;
8580;SDS011;4328;48.622;9.230;2022-12-20T09:44:22;10.37;;;7.97;;
8580;SDS011;4328;48.622;9.230;2022-12-20T09:46:52;9.63;;;8.57;;
8580;SDS011;4328;48.622;9.230;2022-12-20T09:49:26;12.07;;;9.23;;
8580;SDS011;4328;48.622;9.230;2022-12-20T09:54:56;11.27;;;9.30;;
8580;SDS011;4328;48.622;9.230;2022-12-20T09:57:39;10.73;;;9.33;;
8580;SDS011;4328;48.622;9.230;2022-12-20T10:00:20;10.20;;;9.10;;
8580;SDS011;4328;48.622;9.230;2022-12-20T10:02:46;10.27;;;9.00;;
8580;SDS011;4328;48.622;9.230;2022-12-20T10:05:15;10.17;;;8.73;;
8580;SDS011;4328;48.622;9.230;2022-12-20T10:07:47;10.30;;;8.67;;
8580;SDS011;4328;48.622;9.230;2022-12-20T10:10:34;10.03;;;9.03;;
8580;SDS011;4328;48.622;9.230;2022-12-20T10:13:11;9.40;;;8.50;;
8580;SDS011;4328;48.622;9.230;2022-12-20T10:15:49;8.93;;;8.13;;
8580;SDS011;4328;48.622;9.230;2022-12-20T10:18:29;13.40;;;8.90;;
8580;SDS011;4328;48.622;9.230;2022-12-20T10:21:10;12.87;;;8.73;;
8580;SDS011;4328;48.622;9.230;2022-12-20T10:23:50;17.23;;;9.93;;
8580;SDS011;4328;48.622;9.230;2022-12-20T10:26:25;8.47;;;7.63;;
8580;SDS011;4328;48.622;9.230;2022-12-20T10:28:53;10.80;;;8.20;;
8580;SDS011;4328;48.622;9.230;2022-12-20T10:31:19;9.60;;;8.20;;
8580;SDS011;4328;48.622;9.230;2022-12-20T10:33:46;9.50;;;7.90;;
8580;SDS011;4328;48.622;9.230;2022-12-20T10:36:16;9.80;;;8.50;;
8580;SDS011;4328;48.622;9.230;2022-12-20T10:38:45;9.93;;;8.60;;
8580;SDS011;4328;48.622;9.230;2022-12-20T10:41:15;11.20;;;8.73;;
8580;SDS011;4328;48.622;9.230;2022-12-20T10:43:44;9.97;;;8.97;;
8580;SDS011;4328;48.622;9.230;2022-12-20T10:46:13;11.00;;;8.83;;
8580;SDS011;4328;48.622;9.230;2022-12-20T10:48:42;10.27;;;8.87;;
8580;SDS011;4328;48.622;9.230;2022-12-20T10:51:13;9.97;;;8.90;;
8580;SDS011;4328;48.622;9.230;2022-12-20T10:53:51;9.60;;;8.53;;
8580;SDS011;4328;48.622;9.230;2022-12-20T10:56:22;9.83;;;8.73;;
8580;SDS011;4328;48.622;9.230;2022-12-20T10:58:52;8.43;;;7.63;;
8580;SDS011;4328;48.622;9.230;2022-12-20T11:01:21;8.53;;;7.73;;
8580;SDS011;4328;48.622;9.230;2022-12-20T11:03:53;9.27;;;8.33;;
8580;SDS011;4328;48.622;9.230;2022-12-20T11:06:23;10.33;;;7.90;;
8580;SDS011;4328;48.622;9.230;2022-12-20T11:08:51;8.53;;;7.73;;
8580;SDS011;4328;48.622;9.230;2022-12-20T11:11:18;8.80;;;7.93;;
8580;SDS011;4328;48.622;9.230;2022-12-20T11:13:49;8.43;;;7.63;;
8580;SDS011;4328;48.622;9.230;2022-12-20T11:16:22;15.43;;;8.03;;
8580;SDS011;4328;48.622;9.230;2022-12-20T11:18:53;9.73;;;8.03;;
8580;SDS011;4328;48.622;9.230;2022-12-20T11:21:31;9.23;;;8.27;;
8580;SDS011;4328;48.622;9.230;2022-12-20T11:24:07;8.00;;;7.20;;
8580;SDS011;4328;48.622;9.230;2022-12-20T11:26:44;9.23;;;8.00;;
8580;SDS011;4328;48.622;9.230;2022-12-20T11:29:30;9.97;;;8.47;;
8580;SDS011;4328;48.622;9.230;2022-12-20T11:32:17;10.23;;;8.27;;
8580;SDS011;4328;48.622;9.230;2022-12-20T11:34:54;9.33;;;8.20;;
8580;SDS011;4328;48.622;9.230;2022-12-20T11:37:29;8.73;;;7.73;;
8580;SDS011;4328;48.622;9.230;2022-12-20T11:40:08;9.83;;;8.40;;
8580;SDS011;4328;48.622;9.230;2022-12-20T11:42:50;8.53;;;7.63;;
8580;SDS011;4328;48.622;9.230;2022-12-20T11:45:25;8.57;;;7.77;;
8580;SDS011;4328;48.622;9.230;2022-12-20T11:48:01;9.20;;;7.53;;
8580;SDS011;4328;48.622;9.230;2022-12-20T11:50:44;8.50;;;7.70;;
8580;SDS011;4328;48.622;9.230;2022-12-20T11:53:22;7.87;;;7.07;;
8580;SDS011;4328;48.622;9.230;2022-12-20T11:55:55;8.63;;;7.63;;
8580;SDS011;4328;48.622;9.230;2022-12-20T11:58:28;11.33;;;8.53;;
8580;SDS011;4328;48.622;9.230;2022-12-20T12:01:02;10.03;;;8.80;;
8580;SDS011;4328;48.622;9.230;2022-12-20T12:03:32;8.87;;;7.73;;
8580;SDS011;4328;48.622;9.230;2022-12-20T12:06:02;9.30;;;7.57;;
8580;SDS011;4328;48.622;9.230;2022-12-20T12:08:35;8.50;;;7.50;;
8580;SDS011;4328;48.622;9.230;2022-12-20T12:11:09;8.00;;;7.20;;
8580;SDS011;4328;48.622;9.230;2022-12-20T12:13:41;8.30;;;7.50;;
8580;SDS011;4328;48.622;9.230;2022-12-20T12:16:15;14.63;;;10.80;;
8580;SDS011;4328;48.622;9.230;2022-12-20T12:18:47;13.97;;;10.83;;
8580;SDS011;4328;48.622;9.230;2022-12-20T12:21:16;12.60;;;10.10;;
8580;SDS011;4328;48.622;9.230;2022-12-20T12:23:49;10.13;;;8.83;;
8580;SDS011;4328;48.622;9.230;2022-12-20T12:26:26;10.20;;;9.17;;
8580;SDS011;4328;48.622;9.230;2022-12-20T12:28:54;9.97;;;8.60;;
8580;SDS011;4328;48.622;9.230;2022-12-20T12:31:27;10.07;;;8.67;;
8580;SDS011;4328;48.622;9.230;2022-12-20T12:34:05;10.77;;;9.60;;
8580;SDS011;4328;48.622;9.230;2022-12-20T12:36:52;12.43;;;8.83;;
8580;SDS011;4328;48.622;9.230;2022-12-20T12:39:43;9.73;;;8.73;;
8580;SDS011;4328;48.622;9.230;2022-12-20T12:45:31;12.53;;;10.53;;
8580;SDS011;4328;48.622;9.230;2022-12-20T12:48:04;8.13;;;7.23;;
8580;SDS011;4328;48.622;9.230;2022-12-20T12:50:41;9.53;;;8.53;;
8580;SDS011;4328;48.622;9.230;2022-12-20T12:53:12;11.13;;;8.80;;
8580;SDS011;4328;48.622;9.230;2022-12-20T12:55:42;7.27;;;6.23;;
8580;SDS011;4328;48.622;9.230;2022-12-20T13:00:59;8.40;;;6.37;;
8580;SDS011;4328;48.622;9.230;2022-12-20T13:03:40;6.30;;;5.70;;
8580;SDS011;4328;48.622;9.230;2022-12-20T13:09:38;6.97;;;5.47;;
8580;SDS011;4328;48.622;9.230;2022-12-20T13:18:21;8.43;;;6.70;;
8580;SDS011;4328;48.622;9.230;2022-12-20T13:27:03;19.00;;;7.57;;
8580;SDS011;4328;48.622;9.230;2022-12-20T13:29:51;14.60;;;8.00;;
8580;SDS011;4328;48.622;9.230;2022-12-20T13:35:27;8.87;;;7.97;;
8580;SDS011;4328;48.622;9.230;2022-12-20T13:37:56;12.37;;;7.97;;
8580;SDS011;4328;48.622;9.230;2022-12-20T13:40:29;9.17;;;8.20;;
8580;SDS011;4328;48.622;9.230;2022-12-20T13:43:04;11.77;;;8.33;;
8580;SDS011;4328;48.622;9.230;2022-12-20T13:45:35;8.83;;;7.57;;
8580;SDS011;4328;48.622;9.230;2022-12-20T13:48:05;11.27;;;7.07;;
8580;SDS011;4328;48.622;9.230;2022-12-20T13:50:37;9.13;;;8.00;;
8580;SDS011;4328;48.622;9.230;2022-12-20T13:53:05;9.23;;;7.70;;
8580;SDS011;4328;48.622;9.230;2022-12-20T13:55:41;9.17;;;7.63;;
8580;SDS011;4328;48.622;9.230;2022-12-20T13:58:12;11.07;;;8.33;;
8580;SDS011;4328;48.622;9.230;2022-12-20T14:00:41;10.37;;;6.87;;
8580;SDS011;4328;48.622;9.230;2022-12-20T14:03:13;9.73;;;7.13;;
8580;SDS011;4328;48.622;9.230;2022-12-20T14:05:45;18.10;;;7.90;;
8580;SDS011;4328;48.622;9.230;2022-12-20T14:08:13;16.00;;;8.27;;
8580;SDS011;4328;48.622;9.230;2022-12-20T14:10:42;13.00;;;7.67;;
8580;SDS011;4328;48.622;9.230;2022-12-20T14:13:17;10.80;;;6.40;;
8580;SDS011;4328;48.622;9.230;2022-12-20T14:15:46;7.37;;;5.67;;
8580;SDS011;4328;48.622;9.230;2022-12-20T14:18:15;7.30;;;6.20;;
8580;SDS011;4328;48.622;9.230;2022-12-20T14:20:44;12.23;;;6.70;;
8580;SDS011;4328;48.622;9.230;2022-12-20T14:23:15;10.13;;;8.00;;
8580;SDS011;4328;48.622;9.230;2022-12-20T14:25:45;10.20;;;7.20;;
8580;SDS011;4328;48.622;9.230;2022-12-20T14:28:22;8.60;;;7.47;;
8580;SDS011;4328;48.622;9.230;2022-12-20T14:30:54;10.97;;;8.03;;
8580;SDS011;4328;48.622;9.230;2022-12-20T14:33:25;10.00;;;8.13;;
8580;SDS011;4328;48.622;9.230;2022-12-20T14:35:54;11.47;;;8.10;;
8580;SDS011;4328;48.622;9.230;2022-12-20T14:38:22;14.63;;;9.20;;
8580;SDS011;4328;48.622;9.230;2022-12-20T14:40:54;10.27;;;9.07;;
8580;SDS011;4328;48.622;9.230;2022-12-20T14:43:24;11.40;;;9.40;;
8580;SDS011;4328;48.622;9.230;2022-12-20T14:46:06;13.13;;;9.27;;
8580;SDS011;4328;48.622;9.230;2022-12-20T14:48:44;12.53;;;10.43;;
8580;SDS011;4328;48.622;9.230;2022-12-20T14:51:11;8.13;;;7.43;;
8580;SDS011;4328;48.622;9.230;2022-12-20T14:53:39;8.47;;;6.90;;
8580;SDS011;4328;48.622;9.230;2022-12-20T14:56:12;8.73;;;6.20;;
8580;SDS011;4328;48.622;9.230;2022-12-20T14:58:41;8.77;;;6.73;;
8580;SDS011;4328;48.622;9.230;2022-12-20T15:01:18;11.20;;;7.40;;
8580;SDS011;4328;48.622;9.230;2022-12-20T15:03:49;8.67;;;7.37;;
8580;SDS011;4328;48.622;9.230;2022-12-20T15:06:30;9.13;;;7.77;;
8580;SDS011;4328;48.622;9.230;2022-12-20T15:08:58;9.53;;;8.20;;
8580;SDS011;4328;48.622;9.230;2022-12-20T15:11:26;11.30;;;8.27;;
8580;SDS011;4328;48.622;9.230;2022-12-20T15:13:54;10.17;;;8.87;;
8580;SDS011;4328;48.622;9.230;2022-12-20T15:16:23;13.70;;;8.47;;
8580;SDS011;4328;48.622;9.230;2022-12-20T15:18:51;11.77;;;9.20;;
8580;SDS011;4328;48.622;9.230;2022-12-20T15:21:22;15.53;;;8.63;;
8580;SDS011;4328;48.622;9.230;2022-12-20T15:23:53;13.27;;;8.47;;
8580;SDS011;4328;48.622;9.230;2022-12-20T15:26:22;12.10;;;9.20;;
8580;SDS011;4328;48.622;9.230;2022-12-20T15:28:50;16.93;;;10.20;;
8580;SDS011;4328;48.622;9.230;2022-12-20T15:31:20;12.30;;;9.37;;
8580;SDS011;4328;48.622;9.230;2022-12-20T15:33:49;14.03;;;9.83;;
8580;SDS011;4328;48.622;9.230;2022-12-20T15:36:18;11.87;;;9.47;;
8580;SDS011;4328;48.622;9.230;2022-12-20T15:38:46;15.43;;;9.20;;
8580;SDS011;4328;48.622;9.230;2022-12-20T15:41:15;11.60;;;10.27;;
8580;SDS011;4328;48.622;9.230;2022-12-20T15:43:44;12.17;;;8.93;;
8580;SDS011;4328;48.622;9.230;2022-12-20T15:46:11;13.33;;;10.10;;
8580;SDS011;4328;48.622;9.230;2022-12-20T15:48:39;12.60;;;8.97;;